Time;durP1;ratioP1;P1;durP2;ratioP2;P2;SDS_P1;SDS_P2;PMS_P1;PMS_P2;Temp;Humidity;BMP_temperature;BMP_pressure;BME280_temperature;BME280_humidity;BME280_pressure;Samples;Min_cycle;Max_cycle;Signal;HPM_P1;HPM_P2
2021/09/08 00:00:15;;;;;;;13.43;8.97;;;18.00;98.30;;;;;;5144407;23;20922;-82
2021/09/08 00:02:18;;;;;;;10.33;9.20;;;18.00;98.30;;;;;;5151335;23;20507;-80
2021/09/08 00:04:21;;;;;;;11.13;9.60;;;18.00;98.30;;;;;;5142919;23;20429;-80
2021/09/08 00:06:24;;;;;;;12.23;8.80;;;18.00;98.30;;;;;;5143216;23;20449;-80
2021/09/08 00:08:27;;;;;;;11.00;9.20;;;18.10;98.30;;;;;;5143455;23;20922;-80
2021/09/08 00:10:31;;;;;;;10.30;8.40;;;18.10;98.30;;;;;;5143299;23;20476;-80
2021/09/08 00:12:34;;;;;;;12.93;9.00;;;18.00;98.30;;;;;;5151276;23;20445;-80
2021/09/08 00:14:37;;;;;;;10.83;8.87;;;17.90;98.30;;;;;;5143235;23;20433;-80
2021/09/08 00:16:40;;;;;;;13.43;9.70;;;18.00;98.30;;;;;;5143824;23;20962;-80
2021/09/08 00:18:43;;;;;;;10.97;8.60;;;17.80;98.30;;;;;;5143837;23;20571;-80
2021/09/08 00:20:46;;;;;;;9.23;8.33;;;17.80;98.30;;;;;;5143224;23;20425;-80
2021/09/08 00:22:49;;;;;;;9.93;8.80;;;17.60;98.30;;;;;;5144056;23;20794;-80
2021/09/08 00:24:52;;;;;;;12.57;9.80;;;17.60;98.30;;;;;;5143585;23;20841;-80
2021/09/08 00:26:56;;;;;;;10.07;8.87;;;17.60;98.30;;;;;;5144376;23;20876;-80
2021/09/08 00:28:59;;;;;;;10.30;9.20;;;17.50;98.30;;;;;;5152521;23;20463;-80
2021/09/08 00:31:02;;;;;;;12.87;9.80;;;17.50;98.30;;;;;;5144260;23;20424;-81
2021/09/08 00:33:05;;;;;;;9.77;8.77;;;17.50;98.30;;;;;;5143707;23;20480;-80
2021/09/08 00:35:09;;;;;;;10.33;8.80;;;17.60;98.30;;;;;;5143439;23;20757;-80
2021/09/08 00:37:13;;;;;;;12.60;10.20;;;17.50;98.30;;;;;;5151654;23;20773;-80
2021/09/08 00:39:15;;;;;;;9.93;8.93;;;17.50;98.30;;;;;;5143265;23;20441;-80
2021/09/08 00:41:19;;;;;;;10.03;9.03;;;17.50;98.30;;;;;;5151398;23;20428;-80
2021/09/08 00:43:23;;;;;;;11.80;9.47;;;17.50;98.30;;;;;;5143077;23;20519;-80
2021/09/08 00:45:26;;;;;;;10.93;9.20;;;17.50;98.30;;;;;;5143588;23;20486;-80
2021/09/08 00:47:29;;;;;;;12.13;9.20;;;17.60;98.30;;;;;;5144132;23;20425;-80
2021/09/08 00:49:33;;;;;;;10.60;9.40;;;17.70;98.30;;;;;;5144310;23;20433;-80
2021/09/08 00:51:37;;;;;;;11.27;9.57;;;17.80;98.30;;;;;;5152697;23;20420;-80
2021/09/08 00:53:41;;;;;;;11.70;8.67;;;17.80;98.30;;;;;;5145338;23;20425;-80
2021/09/08 00:55:44;;;;;;;12.23;9.80;;;17.70;98.30;;;;;;5149722;23;20479;-80
2021/09/08 00:57:49;;;;;;;12.10;9.10;;;17.60;98.30;;;;;;5146590;23;20728;-80
2021/09/08 00:59:53;;;;;;;10.33;9.23;;;17.70;98.30;;;;;;5146921;23;20433;-80
2021/09/08 01:01:57;;;;;;;13.80;9.77;;;17.60;98.30;;;;;;5151491;23;20425;-80
2021/09/08 01:04:01;;;;;;;9.93;8.90;;;17.60;98.30;;;;;;5153300;23;20428;-80
2021/09/08 01:06:04;;;;;;;9.80;8.77;;;17.60;98.30;;;;;;5152312;23;20445;-80
2021/09/08 01:08:08;;;;;;;11.30;10.17;;;17.40;98.30;;;;;;5161074;23;20447;-80
2021/09/08 01:10:11;;;;;;;13.07;8.97;;;17.40;98.30;;;;;;5146930;23;20547;-80
2021/09/08 01:12:15;;;;;;;12.00;9.30;;;17.40;98.30;;;;;;5145506;23;21000;-81
2021/09/08 01:14:17;;;;;;;10.13;8.73;;;17.40;98.30;;;;;;5145041;23;20435;-81
2021/09/08 01:16:22;;;;;;;11.07;8.30;;;17.30;98.30;;;;;;5145872;23;20452;-80
2021/09/08 01:18:25;;;;;;;12.43;9.13;;;17.40;98.30;;;;;;5144394;23;20434;-81
2021/09/08 01:20:28;;;;;;;9.53;8.50;;;17.30;98.30;;;;;;5144395;23;20433;-80
2021/09/08 01:22:33;;;;;;;10.00;8.83;;;17.30;98.30;;;;;;5142727;23;20424;-80
2021/09/08 01:24:40;;;;;;;9.43;8.07;;;17.30;98.30;;;;;;5150928;23;20884;-80
2021/09/08 01:26:45;;;;;;;10.30;8.27;;;17.20;98.30;;;;;;5143400;23;20818;-80
2021/09/08 01:28:48;;;;;;;12.83;9.47;;;17.20;98.30;;;;;;5143442;23;20425;-80
2021/09/08 01:30:55;;;;;;;10.07;9.07;;;17.20;98.30;;;;;;5143184;23;20428;-80
2021/09/08 01:33:00;;;;;;;12.53;9.73;;;17.10;98.30;;;;;;5145190;23;20452;-80
2021/09/08 01:35:03;;;;;;;8.43;7.53;;;17.10;98.30;;;;;;5144841;23;20451;-80
2021/09/08 01:37:06;;;;;;;11.13;8.97;;;17.10;98.30;;;;;;5144058;23;20455;-80
2021/09/08 01:39:16;;;;;;;10.13;8.90;;;17.00;98.30;;;;;;5145134;23;20428;-80
2021/09/08 01:41:20;;;;;;;10.70;8.53;;;17.00;98.30;;;;;;5144595;23;20408;-80
2021/09/08 01:43:24;;;;;;;8.97;8.07;;;16.90;98.30;;;;;;5143952;23;20409;-80
2021/09/08 01:45:27;;;;;;;9.53;7.40;;;16.80;98.30;;;;;;5144375;23;20435;-81
2021/09/08 01:47:30;;;;;;;8.30;7.50;;;16.80;98.30;;;;;;5145240;23;20460;-80
2021/09/08 01:49:33;;;;;;;11.30;8.73;;;16.80;98.30;;;;;;5145589;23;20431;-81
2021/09/08 01:51:36;;;;;;;12.00;8.37;;;16.70;98.30;;;;;;5154807;23;20421;-80
2021/09/08 01:53:39;;;;;;;9.17;8.20;;;16.70;98.30;;;;;;5145295;23;20460;-81
2021/09/08 01:55:42;;;;;;;9.23;8.23;;;16.70;98.30;;;;;;5146566;23;20428;-80
2021/09/08 01:57:46;;;;;;;8.93;8.07;;;16.70;98.30;;;;;;5146409;23;20792;-80
2021/09/08 01:59:49;;;;;;;10.07;8.17;;;16.70;98.30;;;;;;5145231;23;20431;-80
2021/09/08 02:01:52;;;;;;;9.27;8.23;;;16.70;98.30;;;;;;5145006;23;20432;-80
2021/09/08 02:03:55;;;;;;;10.77;8.60;;;16.70;98.30;;;;;;5144846;23;20429;-80
2021/09/08 02:05:58;;;;;;;9.70;8.37;;;16.70;98.30;;;;;;5144969;23;20449;-80
2021/09/08 02:08:01;;;;;;;9.13;8.20;;;16.80;98.30;;;;;;5145594;23;20762;-80
2021/09/08 02:10:04;;;;;;;9.83;8.83;;;16.90;98.30;;;;;;5145343;23;20433;-80
2021/09/08 02:12:07;;;;;;;9.57;8.40;;;16.80;98.30;;;;;;5144956;23;20424;-81
2021/09/08 02:14:12;;;;;;;10.00;7.93;;;16.80;98.30;;;;;;5144320;23;20945;-80
2021/09/08 02:16:18;;;;;;;10.33;7.83;;;16.70;98.30;;;;;;5144983;23;20866;-80
2021/09/08 02:18:21;;;;;;;8.63;7.73;;;16.70;98.30;;;;;;5145179;23;20423;-80
2021/09/08 02:20:24;;;;;;;9.00;8.07;;;16.70;98.30;;;;;;5144711;23;20762;-82
2021/09/08 02:22:27;;;;;;;9.10;7.50;;;16.80;98.30;;;;;;5144107;23;20424;-81
2021/09/08 02:24:30;;;;;;;10.37;8.40;;;16.70;98.30;;;;;;5152675;23;20417;-81
2021/09/08 02:26:33;;;;;;;9.70;7.53;;;16.60;98.30;;;;;;5144697;23;20786;-81
2021/09/08 02:28:36;;;;;;;9.83;8.83;;;16.60;98.30;;;;;;5144892;23;21219;-81
2021/09/08 02:30:40;;;;;;;8.93;8.00;;;16.60;98.30;;;;;;5145243;23;20988;-82
2021/09/08 02:32:43;;;;;;;8.50;7.70;;;16.50;98.30;;;;;;5145996;23;20429;-81
2021/09/08 02:34:46;;;;;;;10.17;8.10;;;16.40;98.30;;;;;;5146246;23;20778;-82
2021/09/08 02:36:49;;;;;;;10.90;8.60;;;16.30;98.30;;;;;;5154559;22;20934;-83
2021/09/08 02:38:53;;;;;;;8.53;7.63;;;16.30;98.30;;;;;;5175741;23;20454;-81
2021/09/08 02:40:56;;;;;;;10.47;8.43;;;16.30;98.30;;;;;;5175927;23;20426;-81
2021/09/08 02:42:59;;;;;;;9.33;7.77;;;16.30;98.30;;;;;;5176011;23;20443;-81
2021/09/08 02:45:02;;;;;;;9.07;7.93;;;16.30;98.30;;;;;;5167289;23;20427;-81
2021/09/08 02:47:07;;;;;;;9.63;7.87;;;16.10;98.30;;;;;;5167531;23;20439;-81
2021/09/08 02:49:10;;;;;;;9.20;8.10;;;15.90;98.30;;;;;;5167712;23;20423;-80
2021/09/08 02:51:13;;;;;;;9.17;7.83;;;16.00;98.30;;;;;;5167453;23;20434;-81
2021/09/08 02:53:16;;;;;;;7.87;7.07;;;15.90;98.30;;;;;;5167831;23;20444;-81
2021/09/08 02:55:19;;;;;;;8.60;7.53;;;16.00;98.30;;;;;;5176107;23;20426;-83
2021/09/08 02:57:22;;;;;;;10.03;8.37;;;16.00;98.30;;;;;;5175959;23;21000;-82
2021/09/08 02:59:25;;;;;;;7.83;7.03;;;15.90;98.30;;;;;;5167969;23;20458;-83
2021/09/08 03:01:28;;;;;;;9.77;7.33;;;15.80;98.30;;;;;;5167552;23;20481;-83
2021/09/08 03:03:33;;;;;;;9.97;8.97;;;15.80;98.30;;;;;;5175742;23;20419;-83
2021/09/08 03:05:36;;;;;;;11.43;7.50;;;15.90;98.30;;;;;;5176293;23;20480;-83
2021/09/08 03:07:39;;;;;;;10.40;7.97;;;15.70;98.30;;;;;;5181157;23;20445;-83
2021/09/08 03:09:42;;;;;;;9.17;7.43;;;15.70;98.30;;;;;;5189413;23;20416;-83
2021/09/08 03:11:45;;;;;;;11.33;8.07;;;15.70;98.30;;;;;;5178844;23;20424;-82
2021/09/08 03:13:48;;;;;;;9.10;7.63;;;15.60;98.30;;;;;;5179409;23;20511;-81
2021/09/08 03:15:51;;;;;;;9.07;8.17;;;15.70;98.30;;;;;;5188343;23;20440;-81
2021/09/08 03:17:54;;;;;;;10.90;8.23;;;15.70;98.30;;;;;;5188386;23;20459;-82
2021/09/08 03:19:58;;;;;;;9.10;7.93;;;15.70;98.30;;;;;;5189340;23;20416;-81
2021/09/08 03:22:02;;;;;;;12.30;8.87;;;15.70;98.30;;;;;;5175230;23;20933;-82
2021/09/08 03:24:05;;;;;;;9.90;8.23;;;15.70;98.30;;;;;;5169242;23;20423;-82
2021/09/08 03:26:09;;;;;;;11.67;8.17;;;15.70;98.30;;;;;;5167816;23;20442;-82
2021/09/08 03:28:12;;;;;;;12.00;8.80;;;15.70;98.30;;;;;;5169836;23;20450;-82
2021/09/08 03:30:15;;;;;;;9.87;8.87;;;15.70;98.30;;;;;;5169901;23;20432;-82
2021/09/08 03:32:18;;;;;;;13.53;8.77;;;15.80;98.30;;;;;;5175653;23;20432;-82
2021/09/08 03:34:21;;;;;;;12.47;7.97;;;15.80;98.30;;;;;;5175551;23;20501;-83
2021/09/08 03:36:25;;;;;;;11.37;8.50;;;15.80;98.30;;;;;;5167783;23;20516;-82
2021/09/08 03:38:28;;;;;;;10.40;8.13;;;15.70;98.30;;;;;;5167090;23;20460;-83
2021/09/08 03:40:34;;;;;;;10.77;7.80;;;15.70;98.30;;;;;;5167443;23;20432;-83
2021/09/08 03:42:39;;;;;;;10.50;9.27;;;15.70;98.30;;;;;;5167458;23;21011;-83
2021/09/08 03:44:42;;;;;;;12.30;8.67;;;15.70;98.30;;;;;;5175466;23;20407;-83
2021/09/08 03:46:45;;;;;;;12.23;8.53;;;15.70;98.30;;;;;;5175556;23;20767;-82
2021/09/08 03:48:48;;;;;;;9.30;8.33;;;15.70;98.30;;;;;;5175393;23;20518;-82
2021/09/08 03:50:51;;;;;;;9.40;8.40;;;15.80;98.30;;;;;;5175290;23;20450;-82
2021/09/08 03:52:55;;;;;;;8.80;7.90;;;15.90;98.30;;;;;;5175706;23;20423;-83
2021/09/08 03:54:58;;;;;;;10.10;9.00;;;15.90;98.30;;;;;;5174751;23;20440;-83
2021/09/08 03:57:01;;;;;;;10.57;8.40;;;15.80;98.30;;;;;;5166825;23;20452;-82
2021/09/08 03:59:04;;;;;;;9.40;8.40;;;15.80;98.30;;;;;;5167433;23;20434;-82
2021/09/08 04:01:07;;;;;;;10.63;8.90;;;15.80;98.30;;;;;;5166814;23;20749;-83
2021/09/08 04:03:11;;;;;;;10.13;9.00;;;15.70;98.30;;;;;;5167334;23;20424;-82
2021/09/08 04:05:14;;;;;;;10.40;9.13;;;15.80;98.30;;;;;;5166864;23;20416;-83
2021/09/08 04:07:17;;;;;;;10.90;8.93;;;15.80;98.30;;;;;;5166684;23;20519;-82
2021/09/08 04:09:21;;;;;;;9.50;8.10;;;15.80;98.30;;;;;;5166951;23;20427;-83
2021/09/08 04:11:24;;;;;;;10.43;8.70;;;15.80;98.30;;;;;;5166863;23;20424;-83
2021/09/08 04:13:27;;;;;;;10.90;9.50;;;15.80;98.30;;;;;;5166558;23;20427;-82
2021/09/08 04:15:30;;;;;;;10.07;8.93;;;15.80;98.30;;;;;;5167381;23;20534;-83
2021/09/08 04:17:33;;;;;;;10.10;8.60;;;15.80;98.30;;;;;;5166544;23;20588;-82
2021/09/08 04:19:36;;;;;;;10.53;9.53;;;15.70;98.30;;;;;;5166256;23;20427;-83
2021/09/08 04:21:39;;;;;;;11.27;10.07;;;15.80;98.30;;;;;;5166827;23;20428;-82
2021/09/08 04:23:42;;;;;;;11.90;9.30;;;15.80;98.30;;;;;;5174889;23;20416;-82
2021/09/08 04:25:46;;;;;;;17.20;13.43;;;15.80;98.30;;;;;;5167228;23;20424;-83
2021/09/08 04:27:49;;;;;;;14.50;10.23;;;15.80;98.30;;;;;;5175554;23;20443;-83
2021/09/08 04:29:52;;;;;;;13.80;11.50;;;15.90;98.30;;;;;;5175154;23;20606;-83
2021/09/08 04:31:55;;;;;;;11.00;9.30;;;16.00;98.30;;;;;;5166844;23;20519;-83
2021/09/08 04:33:58;;;;;;;11.23;9.57;;;16.10;98.30;;;;;;5166658;23;20518;-82
2021/09/08 04:36:01;;;;;;;12.90;9.63;;;16.00;98.30;;;;;;5167347;23;20432;-86
2021/09/08 04:38:05;;;;;;;12.07;9.70;;;16.00;98.30;;;;;;5175405;23;20534;-86
2021/09/08 04:40:09;;;;;;;12.47;9.67;;;15.90;98.30;;;;;;5175417;23;21227;-86
2021/09/08 04:42:13;;;;;;;11.13;9.40;;;15.90;98.30;;;;;;5166399;23;20466;-87
2021/09/08 04:44:16;;;;;;;12.30;10.20;;;15.90;98.30;;;;;;5174874;23;20968;-85
2021/09/08 04:46:20;;;;;;;16.73;9.63;;;15.80;98.30;;;;;;5174949;23;20452;-84
2021/09/08 04:48:24;;;;;;;12.63;9.30;;;15.80;98.30;;;;;;5175253;23;20494;-87
2021/09/08 04:50:27;;;;;;;11.70;9.90;;;15.70;98.30;;;;;;5175614;23;20885;-85
2021/09/08 04:52:32;;;;;;;16.50;11.60;;;15.70;98.30;;;;;;5174890;23;20424;-85
2021/09/08 04:54:35;;;;;;;11.60;10.13;;;15.70;98.30;;;;;;5174424;23;20470;-85
2021/09/08 04:56:40;;;;;;;12.10;9.60;;;15.70;98.30;;;;;;5175400;23;20455;-86
2021/09/08 04:58:44;;;;;;;10.53;9.37;;;15.70;98.30;;;;;;5175078;23;20447;-85
2021/09/08 05:00:47;;;;;;;11.30;10.10;;;15.70;98.30;;;;;;5166733;23;20428;-85
2021/09/08 05:02:50;;;;;;;12.50;10.80;;;15.70;98.30;;;;;;5175011;23;20522;-85
2021/09/08 05:04:54;;;;;;;13.17;10.43;;;15.70;98.30;;;;;;5175126;23;20809;-85
2021/09/08 05:06:57;;;;;;;12.40;9.73;;;15.70;98.30;;;;;;5175390;23;20468;-86
2021/09/08 05:09:04;;;;;;;12.73;10.90;;;15.70;98.30;;;;;;5175436;23;20426;-85
2021/09/08 05:11:08;;;;;;;13.67;10.20;;;15.70;98.30;;;;;;5174968;23;20448;-85
2021/09/08 05:13:11;;;;;;;13.70;10.80;;;15.70;98.30;;;;;;5174787;23;20893;-85
2021/09/08 05:15:15;;;;;;;13.23;11.80;;;15.60;98.30;;;;;;5174704;23;20447;-85
2021/09/08 05:17:18;;;;;;;13.70;10.30;;;15.60;98.30;;;;;;5175315;23;20458;-85
2021/09/08 05:19:22;;;;;;;15.10;9.87;;;15.70;98.30;;;;;;5175217;23;20775;-85
2021/09/08 05:21:25;;;;;;;14.37;10.43;;;15.70;98.30;;;;;;5175633;23;20515;-85
2021/09/08 05:23:28;;;;;;;14.80;11.33;;;15.70;98.30;;;;;;5175162;23;20412;-86
2021/09/08 05:25:31;;;;;;;15.33;12.60;;;15.80;98.30;;;;;;5175307;23;20952;-85
2021/09/08 05:27:37;;;;;;;15.13;10.73;;;15.80;98.30;;;;;;5175544;23;20734;-85
2021/09/08 05:29:40;;;;;;;16.17;11.10;;;15.80;98.30;;;;;;5174981;23;20412;-84
2021/09/08 05:31:45;;;;;;;14.33;10.83;;;15.90;98.30;;;;;;5175246;23;20665;-85
2021/09/08 05:33:48;;;;;;;15.87;12.60;;;15.90;98.30;;;;;;5174494;23;20430;-86
2021/09/08 05:35:51;;;;;;;15.77;12.00;;;15.90;98.30;;;;;;5175308;23;21338;-85
2021/09/08 05:37:54;;;;;;;13.80;11.20;;;16.00;98.30;;;;;;5175006;23;21064;-85
2021/09/08 05:39:57;;;;;;;13.23;11.00;;;16.00;98.30;;;;;;5175724;23;20451;-86
2021/09/08 05:42:00;;;;;;;12.63;11.27;;;16.00;98.30;;;;;;5178950;23;20430;-85
2021/09/08 05:44:03;;;;;;;14.73;11.50;;;16.10;98.30;;;;;;5175112;23;20514;-85
2021/09/08 05:46:06;;;;;;;13.13;10.80;;;16.10;98.30;;;;;;5167229;23;20423;-86
2021/09/08 05:48:11;;;;;;;13.40;11.17;;;16.10;98.30;;;;;;5175134;23;20519;-86
2021/09/08 05:50:14;;;;;;;14.77;12.20;;;16.10;98.30;;;;;;5175723;23;20490;-85
2021/09/08 05:52:19;;;;;;;13.63;11.07;;;16.00;98.30;;;;;;5167323;23;20461;-85
2021/09/08 05:54:23;;;;;;;13.60;10.93;;;16.10;98.30;;;;;;5174843;23;20913;-84
2021/09/08 05:56:27;;;;;;;14.50;12.37;;;16.10;98.30;;;;;;5175057;23;20443;-85
2021/09/08 05:58:32;;;;;;;16.00;11.70;;;16.30;98.30;;;;;;5174994;23;20454;-86
2021/09/08 06:00:35;;;;;;;15.50;13.17;;;16.30;98.30;;;;;;5167354;23;20758;-85
2021/09/08 06:02:38;;;;;;;15.73;13.23;;;16.40;98.30;;;;;;5175502;23;20531;-86
2021/09/08 06:04:43;;;;;;;14.23;11.80;;;16.60;98.30;;;;;;5166818;23;20436;-85
2021/09/08 06:06:49;;;;;;;19.87;12.80;;;16.70;98.30;;;;;;5174977;23;20431;-86
2021/09/08 06:08:52;;;;;;;13.43;11.23;;;16.80;98.30;;;;;;5185687;23;20403;-86
2021/09/08 06:10:56;;;;;;;12.97;11.07;;;16.80;98.30;;;;;;5193768;23;20734;-85
2021/09/08 06:12:59;;;;;;;16.37;12.20;;;17.00;98.30;;;;;;5192950;23;20428;-84
2021/09/08 06:15:02;;;;;;;13.47;11.73;;;17.00;98.30;;;;;;5193361;23;20408;-85
2021/09/08 06:17:06;;;;;;;13.80;11.80;;;16.90;98.30;;;;;;5188858;23;20455;-86
2021/09/08 06:19:09;;;;;;;17.50;12.90;;;17.00;98.30;;;;;;5176065;23;20427;-85
2021/09/08 06:21:14;;;;;;;14.90;11.63;;;17.00;98.30;;;;;;5175606;23;20504;-85
2021/09/08 06:23:17;;;;;;;14.03;11.20;;;17.10;98.30;;;;;;5175364;23;20500;-85
2021/09/08 06:25:20;;;;;;;13.40;11.97;;;17.40;98.30;;;;;;5176177;23;20803;-85
2021/09/08 06:27:23;;;;;;;15.40;12.07;;;17.40;98.30;;;;;;5168258;23;20451;-85
2021/09/08 06:29:26;;;;;;;13.67;11.87;;;17.40;98.30;;;;;;5178042;23;20412;-85
2021/09/08 06:31:29;;;;;;;13.70;11.70;;;17.50;98.30;;;;;;5178506;23;20530;-85
2021/09/08 06:33:32;;;;;;;12.70;11.30;;;17.60;98.30;;;;;;5181861;23;20450;-85
2021/09/08 06:35:35;;;;;;;12.90;11.23;;;17.60;98.30;;;;;;5192348;23;20439;-85
2021/09/08 06:37:41;;;;;;;16.57;11.70;;;17.70;98.30;;;;;;5194778;23;20477;-86
2021/09/08 06:39:44;;;;;;;15.23;11.30;;;17.90;98.30;;;;;;5187626;23;20451;-85
2021/09/08 06:41:48;;;;;;;14.60;11.97;;;17.80;98.30;;;;;;5195824;23;20420;-86
2021/09/08 06:43:51;;;;;;;16.43;12.33;;;17.90;98.30;;;;;;5195946;23;20431;-86
2021/09/08 06:45:54;;;;;;;13.50;12.20;;;17.90;98.30;;;;;;5190126;23;20462;-86
2021/09/08 06:47:57;;;;;;;14.43;12.60;;;18.00;98.30;;;;;;5176703;23;20443;-85
2021/09/08 06:50:00;;;;;;;15.50;12.23;;;18.10;98.30;;;;;;5184040;23;20439;-86
2021/09/08 06:52:04;;;;;;;14.00;11.83;;;18.30;98.30;;;;;;5168124;23;20514;-85
2021/09/08 06:54:08;;;;;;;15.30;13.70;;;18.20;98.30;;;;;;5176051;23;20431;-85
2021/09/08 06:56:12;;;;;;;13.60;11.30;;;18.00;98.30;;;;;;5176870;23;20532;-85
2021/09/08 07:01:05;;;;;;;17.00;13.50;;;18.10;98.30;;;;;;5153433;23;21058;-85
2021/09/08 07:03:08;;;;;;;16.37;14.33;;;18.20;98.30;;;;;;5176699;23;20420;-86
2021/09/08 07:05:12;;;;;;;20.13;14.40;;;18.30;98.30;;;;;;5175702;23;20427;-85
2021/09/08 07:07:18;;;;;;;22.53;12.63;;;18.60;98.30;;;;;;5178932;23;20447;-85
2021/09/08 07:09:22;;;;;;;16.77;13.40;;;18.70;98.30;;;;;;5179682;23;20431;-86
2021/09/08 07:11:25;;;;;;;16.17;13.60;;;18.80;98.30;;;;;;5172159;23;20434;-86
2021/09/08 07:13:31;;;;;;;17.47;15.63;;;19.00;98.30;;;;;;5182406;23;20731;-85
2021/09/08 07:15:34;;;;;;;16.47;13.17;;;19.10;98.30;;;;;;5185102;23;20812;-85
2021/09/08 07:17:39;;;;;;;18.93;14.50;;;19.20;98.30;;;;;;5173795;23;20448;-85
2021/09/08 07:19:48;;;;;;;18.93;14.40;;;19.20;98.30;;;;;;5177658;23;20424;-86
2021/09/08 07:21:52;;;;;;;17.73;13.53;;;19.30;98.30;;;;;;5174555;23;20469;-86
2021/09/08 07:23:55;;;;;;;16.30;13.77;;;19.30;98.30;;;;;;5175239;23;20451;-85
2021/09/08 07:26:18;;;;;;;20.37;13.40;;;19.40;98.30;;;;;;5175941;23;20401;-85
2021/09/08 07:28:21;;;;;;;15.70;13.97;;;19.50;98.30;;;;;;5177853;23;20444;-86
2021/09/08 07:30:25;;;;;;;18.27;14.97;;;19.50;98.30;;;;;;5175685;23;20489;-86
2021/09/08 07:32:28;;;;;;;15.80;13.20;;;19.50;98.30;;;;;;5176219;23;20927;-84
2021/09/08 07:34:31;;;;;;;13.50;12.10;;;19.50;98.30;;;;;;5168859;23;20432;-85
2021/09/08 07:36:34;;;;;;;14.30;12.37;;;19.60;98.30;;;;;;5176500;23;20470;-86
2021/09/08 07:38:38;;;;;;;15.70;13.27;;;19.70;98.30;;;;;;5176337;23;20796;-86
2021/09/08 07:40:41;;;;;;;13.53;11.90;;;19.70;98.30;;;;;;5178021;23;20447;-85
2021/09/08 07:42:46;;;;;;;17.93;13.83;;;19.80;98.30;;;;;;5176668;23;20965;-85
2021/09/08 07:44:49;;;;;;;16.40;14.40;;;19.80;98.30;;;;;;5176019;23;20769;-85
2021/09/08 07:46:52;;;;;;;17.80;12.90;;;19.80;98.30;;;;;;5176180;23;20447;-85
2021/09/08 07:48:55;;;;;;;16.37;12.00;;;19.80;98.30;;;;;;5175320;23;20419;-85
2021/09/08 07:50:58;;;;;;;17.10;12.80;;;19.80;98.30;;;;;;5175438;23;20431;-85
2021/09/08 07:53:03;;;;;;;15.83;13.13;;;19.80;98.30;;;;;;5175646;23;20424;-85
2021/09/08 07:55:07;;;;;;;16.63;12.97;;;19.80;98.30;;;;;;5175112;23;20415;-85
2021/09/08 07:57:11;;;;;;;16.00;11.83;;;19.80;98.30;;;;;;5175572;23;20469;-86
2021/09/08 07:59:15;;;;;;;14.93;12.90;;;19.90;98.30;;;;;;5175741;23;20503;-86
2021/09/08 08:01:20;;;;;;;13.97;12.43;;;20.00;98.30;;;;;;5175640;23;20412;-85
2021/09/08 08:03:24;;;;;;;15.80;14.20;;;20.10;98.30;;;;;;5175439;23;20893;-86
2021/09/08 08:05:27;;;;;;;14.70;11.83;;;20.20;98.30;;;;;;5175304;23;20477;-86
2021/09/08 08:07:30;;;;;;;18.30;12.77;;;20.30;98.30;;;;;;5175523;23;20814;-86
2021/09/08 08:09:33;;;;;;;13.77;12.27;;;20.60;98.30;;;;;;5176093;23;20462;-85
2021/09/08 08:11:50;;;;;;;15.50;12.27;;;20.70;98.30;;;;;;5166707;23;20493;-86
2021/09/08 08:13:53;;;;;;;15.20;12.20;;;20.80;98.30;;;;;;5175110;23;20875;-85
2021/09/08 08:16:07;;;;;;;14.83;13.33;;;20.90;98.30;;;;;;5175367;23;20879;-86
2021/09/08 08:18:10;;;;;;;14.80;12.30;;;20.80;98.30;;;;;;5175442;23;20443;-85
2021/09/08 08:20:14;;;;;;;13.90;11.77;;;20.90;98.30;;;;;;5175591;23;20503;-86
2021/09/08 08:22:18;;;;;;;14.40;11.63;;;21.10;98.30;;;;;;5175253;23;20428;-86
2021/09/08 08:24:21;;;;;;;15.63;12.87;;;21.20;98.30;;;;;;5175155;23;20451;-86
2021/09/08 08:26:24;;;;;;;15.10;12.77;;;21.20;98.30;;;;;;5175774;23;20424;-86
2021/09/08 08:28:27;;;;;;;18.53;14.00;;;21.20;98.30;;;;;;5167153;23;20945;-86
2021/09/08 08:30:36;;;;;;;13.50;11.90;;;21.40;98.30;;;;;;5175221;23;20514;-86
2021/09/08 08:32:41;;;;;;;13.37;11.90;;;21.40;98.30;;;;;;5166758;23;20416;-85
2021/09/08 08:34:44;;;;;;;14.33;11.73;;;21.50;98.30;;;;;;5174506;23;20441;-84
2021/09/08 08:36:47;;;;;;;12.30;11.00;;;21.50;98.30;;;;;;5174816;23;20439;-86
2021/09/08 08:41:08;;;;;;;13.80;11.37;;;21.70;98.30;;;;;;5136397;22;20465;-78
2021/09/08 08:43:12;;;;;;;13.00;11.33;;;21.70;98.30;;;;;;5174867;23;20473;-79
2021/09/08 08:45:15;;;;;;;16.33;12.87;;;21.80;98.30;;;;;;5166351;23;20432;-79
2021/09/08 08:47:19;;;;;;;11.63;10.40;;;22.00;98.30;;;;;;5166310;23;20428;-79
2021/09/08 08:49:24;;;;;;;12.00;10.40;;;22.10;98.30;;;;;;5166100;23;20432;-79
2021/09/08 08:51:27;;;;;;;12.70;11.40;;;22.20;98.30;;;;;;5166629;23;20408;-78
2021/09/08 08:53:30;;;;;;;11.93;10.53;;;22.30;98.30;;;;;;5166604;23;20949;-79
2021/09/08 08:55:33;;;;;;;11.80;10.50;;;22.40;98.30;;;;;;5175582;23;20424;-79
2021/09/08 08:57:35;;;;;;;11.60;10.40;;;22.40;98.30;;;;;;5167148;23;20546;-79
2021/09/08 08:59:39;;;;;;;15.80;10.37;;;22.70;98.10;;;;;;5166811;23;20489;-79
2021/09/08 09:01:42;;;;;;;13.13;11.80;;;22.80;98.30;;;;;;5166989;23;20432;-79
2021/09/08 09:03:59;;;;;;;11.53;10.37;;;23.00;96.90;;;;;;5167034;23;20485;-79
2021/09/08 09:06:05;;;;;;;13.20;11.40;;;23.20;97.10;;;;;;5175308;23;20426;-78
2021/09/08 09:08:09;;;;;;;12.30;10.80;;;23.10;96.80;;;;;;5167165;23;20518;-79
2021/09/08 09:10:14;;;;;;;12.17;10.00;;;23.00;97.10;;;;;;5167086;23;20438;-79
2021/09/08 09:12:24;;;;;;;12.60;10.30;;;23.20;97.00;;;;;;5172957;23;20412;-79
2021/09/08 09:14:26;;;;;;;12.33;10.50;;;23.50;96.70;;;;;;5166128;23;20416;-79
2021/09/08 09:16:30;;;;;;;10.63;9.63;;;23.40;94.80;;;;;;5166323;23;20432;-79
2021/09/08 09:18:42;;;;;;;10.47;9.37;;;23.50;95.00;;;;;;5166015;23;20522;-79
2021/09/08 09:20:54;;;;;;;12.23;10.13;;;23.70;94.10;;;;;;5175517;23;20411;-79
2021/09/08 09:23:01;;;;;;;11.63;9.70;;;23.80;93.80;;;;;;5166566;23;20412;-78
2021/09/08 09:25:05;;;;;;;10.80;9.50;;;23.80;94.70;;;;;;5166612;23;20495;-79
2021/09/08 09:27:11;;;;;;;11.57;10.37;;;23.90;93.40;;;;;;5166922;23;20506;-79
2021/09/08 09:29:16;;;;;;;12.50;8.97;;;24.00;93.80;;;;;;5166465;23;20438;-79
2021/09/08 09:31:21;;;;;;;9.40;8.30;;;23.90;92.80;;;;;;5166658;23;20427;-79
2021/09/08 09:33:28;;;;;;;10.97;9.23;;;23.90;92.50;;;;;;5166082;23;20489;-79
2021/09/08 09:35:33;;;;;;;10.10;9.10;;;24.00;93.30;;;;;;5166634;23;20735;-79
2021/09/08 09:37:41;;;;;;;11.70;9.20;;;24.30;92.90;;;;;;5166301;23;20506;-79
2021/09/08 09:39:48;;;;;;;12.10;9.87;;;24.30;91.70;;;;;;5167090;23;20743;-79
2021/09/08 09:41:51;;;;;;;11.63;9.97;;;24.30;91.40;;;;;;5166580;23;20442;-79
2021/09/08 09:43:54;;;;;;;10.80;9.73;;;24.10;91.60;;;;;;5166410;23;20446;-79
2021/09/08 09:45:57;;;;;;;11.20;10.00;;;24.20;92.20;;;;;;5166613;23;20734;-79
2021/09/08 09:48:01;;;;;;;10.37;9.27;;;24.30;91.60;;;;;;5166699;23;20447;-79
2021/09/08 09:50:07;;;;;;;14.33;11.07;;;24.30;91.10;;;;;;5166504;23;20438;-79
2021/09/08 09:52:11;;;;;;;14.03;12.63;;;24.60;90.40;;;;;;5166566;23;20730;-79
2021/09/08 09:54:18;;;;;;;10.20;9.13;;;24.80;90.60;;;;;;5166509;23;20490;-79
2021/09/08 09:56:22;;;;;;;12.27;10.90;;;24.80;89.80;;;;;;5166859;23;20415;-79
2021/09/08 09:58:26;;;;;;;11.03;9.90;;;24.70;90.10;;;;;;5166188;23;20443;-79
2021/09/08 10:00:29;;;;;;;10.63;9.23;;;24.90;89.60;;;;;;5166585;23;20428;-79
2021/09/08 10:02:32;;;;;;;10.83;9.43;;;25.20;89.30;;;;;;5165102;23;20428;-79
2021/09/08 10:04:35;;;;;;;10.50;9.37;;;25.30;89.00;;;;;;5165792;23;20428;-79
2021/09/08 10:06:40;;;;;;;11.43;9.87;;;25.20;88.60;;;;;;5166630;23;20424;-79
2021/09/08 10:08:46;;;;;;;10.57;9.57;;;25.10;89.20;;;;;;5166212;23;20457;-79
2021/09/08 10:10:51;;;;;;;11.57;9.23;;;25.00;88.50;;;;;;5168678;23;20408;-79
2021/09/08 10:12:58;;;;;;;9.83;8.80;;;25.00;89.30;;;;;;5169146;23;20426;-79
2021/09/08 10:15:03;;;;;;;10.17;9.07;;;24.90;89.30;;;;;;5168177;23;20416;-79
2021/09/08 10:17:09;;;;;;;9.67;8.67;;;24.90;89.80;;;;;;5169066;23;20462;-79
2021/09/08 10:19:12;;;;;;;9.77;8.87;;;25.00;88.20;;;;;;5168142;23;20444;-78
2021/09/08 10:21:19;;;;;;;9.90;8.70;;;25.10;88.20;;;;;;5167976;23;20427;-79
2021/09/08 10:23:22;;;;;;;11.37;10.27;;;25.40;88.70;;;;;;5168110;23;20502;-79
2021/09/08 10:25:27;;;;;;;11.30;10.20;;;25.60;87.60;;;;;;5167947;23;20947;-79
2021/09/08 10:27:31;;;;;;;10.60;9.50;;;25.50;88.20;;;;;;5168226;23;20451;-79
2021/09/08 10:29:36;;;;;;;10.37;9.37;;;25.70;87.60;;;;;;5167950;23;20431;-79
2021/09/08 10:31:42;;;;;;;10.73;9.63;;;26.10;86.40;;;;;;5167991;23;20944;-79
2021/09/08 10:33:46;;;;;;;12.00;9.70;;;26.00;86.50;;;;;;5167923;23;20478;-79
2021/09/08 10:35:48;;;;;;;10.00;8.50;;;25.90;86.50;;;;;;5168123;23;21056;-79
2021/09/08 10:37:53;;;;;;;9.57;8.67;;;25.80;86.70;;;;;;5167980;23;20447;-79